createdAt,value
2022-08-03T00:00:08.970Z,2.70
2022-08-03T00:03:06.356Z,2.80
2022-08-03T00:06:03.966Z,2.50
2022-08-03T00:08:53.190Z,3.00
2022-08-03T00:11:41.300Z,2.90
2022-08-03T00:14:29.203Z,3.10
2022-08-03T00:17:17.170Z,3.20
2022-08-03T00:20:05.801Z,3.10
2022-08-03T00:22:54.118Z,3.80
2022-08-03T00:25:42.167Z,2.90
2022-08-03T00:28:30.544Z,3.40
2022-08-03T00:31:19.756Z,2.70
2022-08-03T00:34:36.284Z,2.60
2022-08-03T00:37:41.736Z,3.30
2022-08-03T00:40:30.274Z,2.60
2022-08-03T00:43:18.310Z,2.40
2022-08-03T00:46:05.988Z,2.70
2022-08-03T00:48:54.327Z,2.60
2022-08-03T00:51:41.987Z,2.50
2022-08-03T00:54:30.731Z,2.00
2022-08-03T00:57:19.384Z,2.20
2022-08-03T01:00:10.468Z,2.00
2022-08-03T01:02:58.281Z,2.10
2022-08-03T01:05:52.301Z,2.30
2022-08-03T01:08:52.730Z,2.20
2022-08-03T01:12:04.293Z,2.20
2022-08-03T01:15:28.319Z,2.20
2022-08-03T01:18:43.005Z,1.90
2022-08-03T01:22:14.505Z,1.80
2022-08-03T01:25:30.571Z,2.70
2022-08-03T01:28:51.200Z,2.10
2022-08-03T01:32:58.898Z,1.90
2022-08-03T01:35:17.500Z,2.50
2022-08-03T01:38:22.172Z,2.20
2022-08-03T01:41:20.302Z,2.00
2022-08-03T01:44:29.201Z,2.50
2022-08-03T01:47:22.899Z,2.20
2022-08-03T01:50:12.575Z,2.40
2022-08-03T01:53:01.981Z,2.00
2022-08-03T01:55:54.344Z,2.10
2022-08-03T01:58:44.866Z,2.10
2022-08-03T02:02:29.184Z,1.90
2022-08-03T02:04:47.928Z,2.20
2022-08-03T02:07:37.689Z,2.10
2022-08-03T02:10:35.200Z,2.20
2022-08-03T02:13:25.495Z,2.20
2022-08-03T02:16:14.732Z,1.90
2022-08-03T02:19:06.811Z,2.40
2022-08-03T02:21:57.042Z,1.90
2022-08-03T02:24:51.069Z,2.00
2022-08-03T02:27:46.405Z,2.10
2022-08-03T02:30:39.466Z,2.10
2022-08-03T02:33:34.544Z,2.20
2022-08-03T02:36:31.489Z,1.90
2022-08-03T02:39:25.088Z,1.90
2022-08-03T02:42:15.813Z,1.90
2022-08-03T02:45:12.565Z,2.10
2022-08-03T02:48:04.325Z,1.90
2022-08-03T02:50:54.895Z,2.00
2022-08-03T02:53:45.321Z,1.90
2022-08-03T02:56:34.577Z,2.20
2022-08-03T02:59:23.643Z,1.80
2022-08-03T03:02:14.880Z,2.40
2022-08-03T03:05:55.823Z,1.80
2022-08-03T03:08:17.682Z,1.80
2022-08-03T03:11:09.048Z,1.80
2022-08-03T03:13:58.721Z,1.90
2022-08-03T03:16:51.837Z,2.20
2022-08-03T03:19:46.775Z,2.10
2022-08-03T03:22:36.408Z,2.10
2022-08-03T03:25:25.145Z,2.10
2022-08-03T03:28:13.144Z,2.00
2022-08-03T03:31:01.665Z,1.90
2022-08-03T03:33:49.899Z,2.60
2022-08-03T03:36:38.238Z,2.30
2022-08-03T03:39:26.120Z,2.30
2022-08-03T03:42:14.741Z,2.10
2022-08-03T03:45:08.489Z,2.20
2022-08-03T03:47:56.308Z,2.20
2022-08-03T03:50:45.844Z,2.20
2022-08-03T03:53:33.547Z,2.30
2022-08-03T03:56:21.475Z,2.30
2022-08-03T03:59:09.551Z,1.90
2022-08-03T04:01:59.126Z,2.10
2022-08-03T04:05:05.954Z,2.00
2022-08-03T04:08:19.984Z,2.30
2022-08-03T04:11:30.086Z,2.40
2022-08-03T04:14:37.767Z,2.20
2022-08-03T04:17:29.631Z,1.90
2022-08-03T04:20:21.684Z,1.80
2022-08-03T04:23:15.422Z,1.70
2022-08-03T04:26:09.789Z,2.30
2022-08-03T04:28:59.112Z,2.00
2022-08-03T04:31:48.808Z,2.30
2022-08-03T04:34:37.172Z,2.10
2022-08-03T04:37:48.069Z,2.10
2022-08-03T04:40:39.995Z,2.00
2022-08-03T04:43:29.604Z,2.50
2022-08-03T04:46:22.235Z,2.10
2022-08-03T04:49:10.542Z,2.20
2022-08-03T04:51:59.814Z,2.30
2022-08-03T04:54:50.525Z,1.90
2022-08-03T04:57:39.039Z,2.20
2022-08-03T05:00:27.484Z,1.80
2022-08-03T05:03:20.469Z,2.20
2022-08-03T05:06:13.096Z,2.50
2022-08-03T05:09:04.480Z,2.30
2022-08-03T05:11:53.739Z,2.00
2022-08-03T05:14:41.720Z,3.00
2022-08-03T05:17:29.750Z,2.30
2022-08-03T05:20:19.141Z,2.10
2022-08-03T05:23:07.210Z,2.40
2022-08-03T05:25:55.145Z,2.20
2022-08-03T05:28:50.898Z,2.30
2022-08-03T05:31:40.955Z,2.30
2022-08-03T05:34:29.322Z,2.70
2022-08-03T05:37:17.354Z,2.00
2022-08-03T05:40:06.358Z,2.30
2022-08-03T05:42:54.322Z,2.30
2022-08-03T05:45:42.288Z,2.50
2022-08-03T05:48:30.033Z,2.20
2022-08-03T05:51:18.311Z,2.30
2022-08-03T05:54:06.448Z,2.20
2022-08-03T05:56:54.394Z,2.20
2022-08-03T05:59:53.848Z,2.40
2022-08-03T06:02:46.663Z,1.90
2022-08-03T06:05:37.259Z,3.10
2022-08-03T06:08:31.438Z,2.00
2022-08-03T06:11:19.340Z,2.30
2022-08-03T06:14:07.271Z,1.80
2022-08-03T06:16:55.248Z,1.90
2022-08-03T06:19:43.263Z,1.70
2022-08-03T06:22:31.363Z,1.60
2022-08-03T06:25:21.171Z,1.80
2022-08-03T06:28:14.992Z,1.70
2022-08-03T06:31:11.642Z,1.50
2022-08-03T06:34:34.096Z,1.50
2022-08-03T06:37:07.731Z,1.50
2022-08-03T06:39:55.731Z,1.40
2022-08-03T06:42:44.366Z,1.60
2022-08-03T06:45:35.514Z,1.40
2022-08-03T06:48:27.897Z,1.50
2022-08-03T06:51:16.005Z,1.20
2022-08-03T06:54:05.075Z,1.40
2022-08-03T06:56:54.148Z,1.00
2022-08-03T07:00:10.364Z,1.40
2022-08-03T07:02:51.788Z,1.20
2022-08-03T07:05:46.800Z,1.20
2022-08-03T07:08:34.701Z,1.10
2022-08-03T07:11:24.385Z,1.20
2022-08-03T07:14:12.223Z,1.10
2022-08-03T07:17:00.423Z,1.40
2022-08-03T07:19:50.532Z,1.30
2022-08-03T07:22:39.229Z,1.00
2022-08-03T07:25:27.505Z,1.20
2022-08-03T07:28:15.450Z,1.30
2022-08-03T07:31:03.769Z,1.30
2022-08-03T07:33:51.465Z,1.20
2022-08-03T07:36:39.370Z,1.10
2022-08-03T07:39:27.376Z,1.20
2022-08-03T07:42:15.648Z,1.30
2022-08-03T07:45:04.567Z,1.00
2022-08-03T07:47:53.429Z,1.10
2022-08-03T07:50:42.202Z,1.30
2022-08-03T07:53:30.172Z,1.40
2022-08-03T07:56:18.049Z,1.40
2022-08-03T07:59:06.204Z,1.00
2022-08-03T08:01:56.840Z,1.10
2022-08-03T08:04:44.755Z,1.70
2022-08-03T08:07:32.936Z,2.20
2022-08-03T08:10:21.013Z,1.30
2022-08-03T08:13:08.797Z,1.20
2022-08-03T08:15:56.701Z,1.20
2022-08-03T08:18:44.516Z,1.10
2022-08-03T08:21:52.938Z,1.00
2022-08-03T08:24:40.899Z,1.30
2022-08-03T08:28:22.194Z,1.20
2022-08-03T08:30:41.785Z,1.00
2022-08-03T08:33:47.944Z,1.20
2022-08-03T08:36:38.185Z,1.50
2022-08-03T08:39:26.067Z,1.00
2022-08-03T08:42:15.789Z,1.20
2022-08-03T08:45:07.197Z,1.10
2022-08-03T08:48:01.023Z,1.30
2022-08-03T08:50:54.852Z,1.30
2022-08-03T08:53:48.068Z,1.60
2022-08-03T08:56:39.023Z,4.40
2022-08-03T08:59:27.425Z,2.40
2022-08-03T09:02:35.740Z,1.80
2022-08-03T09:05:36.236Z,2.40
2022-08-03T09:08:33.493Z,2.40
2022-08-03T09:11:57.685Z,2.70
2022-08-03T09:14:39.199Z,2.60
2022-08-03T09:17:41.409Z,1.90
2022-08-03T09:20:33.581Z,2.20
2022-08-03T09:23:59.596Z,2.40
2022-08-03T09:26:31.868Z,2.40
2022-08-03T09:29:21.992Z,2.30
2022-08-03T09:32:11.364Z,2.10
2022-08-03T09:35:05.382Z,2.40
2022-08-03T09:38:24.175Z,2.00
2022-08-03T09:41:19.830Z,1.90
2022-08-03T09:44:08.764Z,2.40
2022-08-03T09:47:16.991Z,2.10
2022-08-03T09:50:09.104Z,2.10
2022-08-03T09:53:02.271Z,1.70
2022-08-03T09:56:32.879Z,1.50
2022-08-03T09:59:02.329Z,1.50
2022-08-03T10:01:52.968Z,1.40
2022-08-03T10:04:53.059Z,1.70
2022-08-03T10:07:49.100Z,1.60
2022-08-03T10:10:44.429Z,1.50
2022-08-03T10:13:32.459Z,1.80
2022-08-03T10:16:25.586Z,1.70
2022-08-03T10:19:15.356Z,2.00
2022-08-03T10:22:12.476Z,1.60
2022-08-03T10:25:11.911Z,1.60
2022-08-03T10:28:04.624Z,1.60
2022-08-03T10:30:55.597Z,1.40
2022-08-03T10:33:51.813Z,1.60
2022-08-03T10:36:41.852Z,1.50
2022-08-03T10:39:30.987Z,1.40
2022-08-03T10:42:20.320Z,1.80
2022-08-03T10:45:26.929Z,1.90
2022-08-03T10:48:16.115Z,1.80
2022-08-03T10:51:05.059Z,2.40
2022-08-03T10:53:54.963Z,1.70
2022-08-03T10:57:13.396Z,1.50
2022-08-03T11:00:19.135Z,1.80
2022-08-03T11:03:14.899Z,1.70
2022-08-03T11:06:19.219Z,1.80
2022-08-03T11:09:10.175Z,1.80
2022-08-03T11:11:58.099Z,1.80
2022-08-03T11:14:48.425Z,1.50
2022-08-03T11:17:45.796Z,2.00
2022-08-03T11:20:55.419Z,2.40
2022-08-03T11:24:04.129Z,3.40
2022-08-03T11:27:20.027Z,2.10
2022-08-03T11:30:29.366Z,3.20
2022-08-03T11:33:31.375Z,1.80
2022-08-03T11:36:32.303Z,2.00
2022-08-03T11:39:20.527Z,2.20
2022-08-03T11:42:35.484Z,2.00
2022-08-03T11:45:23.306Z,1.90
2022-08-03T11:48:17.130Z,2.00
2022-08-03T11:51:08.312Z,1.90
2022-08-03T11:54:02.745Z,1.70
2022-08-03T11:56:51.168Z,2.70
2022-08-03T11:59:39.253Z,2.30
2022-08-03T12:02:27.325Z,2.30
2022-08-03T12:05:15.075Z,2.20
2022-08-03T12:08:06.736Z,2.40
2022-08-03T12:10:57.526Z,2.30
2022-08-03T12:14:45.747Z,2.60
2022-08-03T12:17:02.083Z,2.10
2022-08-03T12:19:50.021Z,2.20
2022-08-03T12:22:40.806Z,2.30
2022-08-03T12:25:39.465Z,2.60
2022-08-03T12:28:28.323Z,3.10
2022-08-03T12:31:26.146Z,2.40
2022-08-03T12:34:14.487Z,2.70
2022-08-03T12:37:22.301Z,2.70
2022-08-03T12:40:17.827Z,2.90
2022-08-03T12:43:13.554Z,2.80
2022-08-03T12:46:13.093Z,2.70
2022-08-03T12:49:09.767Z,3.00
2022-08-03T12:52:05.331Z,2.90
2022-08-03T12:54:56.901Z,2.70
2022-08-03T12:57:45.350Z,2.60
2022-08-03T13:00:33.715Z,2.80
2022-08-03T13:03:39.097Z,2.80
2022-08-03T13:06:29.841Z,2.80
2022-08-03T13:09:18.409Z,3.30
2022-08-03T13:12:12.089Z,4.30
2022-08-03T13:15:01.223Z,3.10
2022-08-03T13:17:49.344Z,3.20
2022-08-03T13:20:37.263Z,3.60
2022-08-03T13:23:25.398Z,2.70
2022-08-03T13:26:13.844Z,2.80
2022-08-03T13:29:01.772Z,3.10
2022-08-03T13:31:51.695Z,2.30
2022-08-03T13:34:40.269Z,3.00
2022-08-03T13:37:29.612Z,2.40
2022-08-03T13:40:17.959Z,2.70
2022-08-03T13:43:05.788Z,2.70
2022-08-03T13:45:57.782Z,2.60
2022-08-03T13:48:45.711Z,3.10
2022-08-03T13:51:34.827Z,2.40
2022-08-03T13:54:23.810Z,3.00
2022-08-03T13:58:02.971Z,2.80
2022-08-03T14:00:27.967Z,2.50
2022-08-03T14:03:17.449Z,2.70
2022-08-03T14:06:05.675Z,2.60
2022-08-03T14:08:55.888Z,2.50
2022-08-03T14:12:07.449Z,2.40
2022-08-03T14:14:56.998Z,2.50
2022-08-03T14:17:50.199Z,2.40
2022-08-03T14:20:50.136Z,2.60
2022-08-03T14:23:42.301Z,2.70
2022-08-03T14:26:30.845Z,2.30
2022-08-03T14:29:18.706Z,2.70
2022-08-03T14:32:09.717Z,2.50
2022-08-03T14:34:58.653Z,2.80
2022-08-03T14:37:46.534Z,2.70
2022-08-03T14:40:34.692Z,2.60
2022-08-03T14:43:22.946Z,2.50
2022-08-03T14:46:10.720Z,2.70
2022-08-03T14:50:28.637Z,2.20
2022-08-03T14:52:08.587Z,2.70
2022-08-03T14:54:56.778Z,2.60
2022-08-03T14:57:44.833Z,2.50
2022-08-03T15:00:34.402Z,2.70
2022-08-03T15:03:25.188Z,2.30
2022-08-03T15:06:13.609Z,2.80
2022-08-03T15:12:10.202Z,2.60
2022-08-03T15:14:58.019Z,6.10
2022-08-03T15:17:59.825Z,2.80
2022-08-03T15:20:50.940Z,2.40
2022-08-03T15:23:39.116Z,2.80
2022-08-03T15:26:36.461Z,3.20
2022-08-03T15:30:09.433Z,2.70
2022-08-03T15:32:37.130Z,3.70
2022-08-03T15:35:25.287Z,2.80
2022-08-03T15:38:13.783Z,2.30
2022-08-03T15:41:02.072Z,3.20
2022-08-03T15:43:54.172Z,2.80
2022-08-03T15:46:42.805Z,2.70
2022-08-03T15:49:30.829Z,2.70
2022-08-03T15:52:18.892Z,2.50
2022-08-03T15:55:08.144Z,3.50
2022-08-03T15:59:04.394Z,3.10
2022-08-03T16:01:19.110Z,2.60
2022-08-03T16:04:08.100Z,2.30
2022-08-03T16:06:56.259Z,2.50
2022-08-03T16:09:44.450Z,2.70
2022-08-03T16:12:33.998Z,2.10
2022-08-03T16:15:22.135Z,2.90
2022-08-03T16:18:12.507Z,2.90
2022-08-03T16:21:02.918Z,4.00
2022-08-03T16:23:52.171Z,3.20
2022-08-03T16:26:41.940Z,2.60
2022-08-03T16:29:33.677Z,2.90
2022-08-03T16:32:24.921Z,3.00
2022-08-03T16:35:19.662Z,2.90
2022-08-03T16:38:10.939Z,2.70
2022-08-03T16:41:00.221Z,3.50
2022-08-03T16:43:48.658Z,3.10
2022-08-03T16:46:37.397Z,3.10
2022-08-03T16:49:54.351Z,3.00
2022-08-03T16:52:39.670Z,2.60
2022-08-03T16:55:48.901Z,3.10
2022-08-03T16:58:44.375Z,2.90
2022-08-03T17:01:37.810Z,3.00
2022-08-03T17:04:27.473Z,3.30
2022-08-03T17:07:18.211Z,3.00
2022-08-03T17:10:09.866Z,3.30
2022-08-03T17:13:00.105Z,2.90
2022-08-03T17:16:01.573Z,3.20
2022-08-03T17:18:57.509Z,3.60
2022-08-03T17:22:04.201Z,3.80
2022-08-03T17:24:54.379Z,3.50
2022-08-03T17:28:48.435Z,3.00
2022-08-03T17:31:22.548Z,3.50
2022-08-03T17:34:26.273Z,3.00
2022-08-03T17:37:50.586Z,3.00
2022-08-03T17:40:29.207Z,3.10
2022-08-03T17:44:12.761Z,3.30
2022-08-03T17:46:29.748Z,3.00
2022-08-03T17:49:24.871Z,3.10
2022-08-03T17:52:21.668Z,3.20
2022-08-03T17:55:57.871Z,2.90
2022-08-03T17:58:55.596Z,3.10
2022-08-03T18:02:47.464Z,2.90
2022-08-03T18:06:10.347Z,2.80
2022-08-03T18:08:57.858Z,3.60
2022-08-03T18:11:55.462Z,3.50
2022-08-03T18:14:57.635Z,3.50
2022-08-03T18:17:55.654Z,4.10
2022-08-03T18:20:51.820Z,3.30
2022-08-03T18:23:39.941Z,3.90
2022-08-03T18:26:30.259Z,3.70
2022-08-03T18:29:22.889Z,3.60
2022-08-03T18:32:16.742Z,3.00
2022-08-03T18:35:07.647Z,3.40
2022-08-03T18:38:03.864Z,3.40
2022-08-03T18:41:00.302Z,3.40
2022-08-03T18:44:08.995Z,3.50
2022-08-03T18:47:23.495Z,3.30
2022-08-03T18:50:30.999Z,3.60
2022-08-03T18:54:04.102Z,4.00
2022-08-03T18:57:00.635Z,3.70
2022-08-03T19:00:14.864Z,3.90
2022-08-03T19:03:10.237Z,4.10
2022-08-03T19:06:15.870Z,4.30
2022-08-03T19:09:16.917Z,4.30
2022-08-03T19:12:39.836Z,4.30
2022-08-03T19:15:36.446Z,4.50
2022-08-03T19:18:32.779Z,4.10
2022-08-03T19:21:22.921Z,4.30
2022-08-03T19:24:13.847Z,4.20
2022-08-03T19:27:05.220Z,4.70
2022-08-03T19:30:19.966Z,4.60
2022-08-03T19:33:16.653Z,4.60
2022-08-03T19:36:10.897Z,5.00
2022-08-03T19:39:00.596Z,4.20
2022-08-03T19:41:52.393Z,4.70
2022-08-03T19:44:50.752Z,4.90
2022-08-03T19:47:56.063Z,4.60
2022-08-03T19:50:48.598Z,4.60
2022-08-03T19:53:44.980Z,4.30
2022-08-03T19:56:34.455Z,4.30
2022-08-03T19:59:26.390Z,4.70
2022-08-03T20:02:17.452Z,4.60
2022-08-03T20:05:15.965Z,5.40
2022-08-03T20:08:07.676Z,5.40
2022-08-03T20:10:59.848Z,5.30
2022-08-03T20:13:54.727Z,5.30
2022-08-03T20:16:45.134Z,5.70
2022-08-03T20:19:35.085Z,5.10
2022-08-03T20:22:34.085Z,5.20
2022-08-03T20:25:38.835Z,6.80
2022-08-03T20:28:50.631Z,6.90
2022-08-03T20:31:39.090Z,5.50
2022-08-03T20:34:27.041Z,6.70
2022-08-03T20:37:15.723Z,6.60
2022-08-03T20:40:07.724Z,6.10
2022-08-03T20:42:55.866Z,6.00
2022-08-03T20:48:54.112Z,7.40
2022-08-03T20:51:50.007Z,6.90
2022-08-03T20:54:41.579Z,7.10
2022-08-03T20:57:33.169Z,6.60
2022-08-03T21:00:21.960Z,6.70
2022-08-03T21:03:09.956Z,6.10
2022-08-03T21:06:06.563Z,5.90
2022-08-03T21:09:05.503Z,5.60
2022-08-03T21:11:55.984Z,5.60
2022-08-03T21:13:07.322Z,6.40
2022-08-03T21:15:01.860Z,6.00
2022-08-03T21:17:54.882Z,4.90
2022-08-03T21:20:47.891Z,5.50
2022-08-03T21:23:48.682Z,5.40
2022-08-03T21:26:39.898Z,6.00
2022-08-03T21:29:28.768Z,5.90
2022-08-03T21:32:32.634Z,5.40
2022-08-03T21:35:23.943Z,5.40
2022-08-03T21:38:20.903Z,5.20
2022-08-03T21:41:20.706Z,5.40
2022-08-03T21:44:09.830Z,5.80
2022-08-03T21:47:00.183Z,6.00
2022-08-03T21:50:06.649Z,4.50
2022-08-03T21:52:59.447Z,4.70
2022-08-03T21:56:00.098Z,4.40
2022-08-03T21:59:00.120Z,5.20
2022-08-03T22:01:55.276Z,4.80
2022-08-03T22:04:53.223Z,4.40
2022-08-03T22:07:44.963Z,4.00
2022-08-03T22:10:32.975Z,4.50
2022-08-03T22:13:42.979Z,4.10
2022-08-03T22:16:30.587Z,3.70
2022-08-03T22:19:18.882Z,4.70
2022-08-03T22:22:13.811Z,3.80
2022-08-03T22:25:12.380Z,4.50
2022-08-03T22:28:10.269Z,4.00
2022-08-03T22:31:00.279Z,3.80
2022-08-03T22:34:08.273Z,3.90
2022-08-03T22:37:02.680Z,4.00
2022-08-03T22:39:51.386Z,3.80
2022-08-03T22:42:42.493Z,4.00
2022-08-03T22:46:06.404Z,3.80
2022-08-03T22:48:40.684Z,4.30
2022-08-03T22:51:30.464Z,3.80
2022-08-03T22:54:18.432Z,3.70
2022-08-03T22:57:07.702Z,3.90
2022-08-03T22:59:55.558Z,3.90
2022-08-03T23:02:48.770Z,4.00
2022-08-03T23:06:01.351Z,4.00
2022-08-03T23:08:47.093Z,4.00
2022-08-03T23:11:45.935Z,3.80
2022-08-03T23:14:38.946Z,3.90
2022-08-03T23:17:31.009Z,3.80
2022-08-03T23:20:20.293Z,3.90
2022-08-03T23:23:15.149Z,3.40
2022-08-03T23:26:08.635Z,3.70
2022-08-03T23:29:01.471Z,3.80
2022-08-03T23:31:50.026Z,3.90
2022-08-03T23:34:59.279Z,3.80
2022-08-03T23:38:04.471Z,3.60
2022-08-03T23:41:00.985Z,3.70
2022-08-03T23:43:54.043Z,3.50
2022-08-03T23:46:44.331Z,3.80
2022-08-03T23:49:32.954Z,3.70
2022-08-03T23:52:49.670Z,3.80
2022-08-03T23:56:11.613Z,3.90
2022-08-03T23:59:42.704Z,3.40
